createdAt,value
2023-04-25T00:00:19.388Z,92127.00
2023-04-25T00:01:19.397Z,92129.00
2023-04-25T00:02:19.439Z,92129.00
2023-04-25T00:03:19.574Z,92129.00
2023-04-25T00:04:19.691Z,92131.00
2023-04-25T00:05:19.577Z,92129.00
2023-04-25T00:06:19.421Z,92129.00
2023-04-25T00:07:19.404Z,92129.00
2023-04-25T00:08:19.409Z,92131.00
2023-04-25T00:09:19.428Z,92129.00
2023-04-25T00:10:19.436Z,92129.00
2023-04-25T00:11:19.432Z,92127.00
2023-04-25T00:12:19.427Z,92125.00
2023-04-25T00:13:19.437Z,92125.00
2023-04-25T00:14:19.443Z,92125.00
2023-04-25T00:15:19.445Z,92123.00
2023-04-25T00:16:19.461Z,92125.00
2023-04-25T00:17:19.443Z,92123.00
2023-04-25T00:18:19.448Z,92123.00
2023-04-25T00:19:19.458Z,92123.00
2023-04-25T00:20:19.448Z,92121.00
2023-04-25T00:21:19.479Z,92119.00
2023-04-25T00:22:19.466Z,92117.00
2023-04-25T00:23:19.482Z,92119.00
2023-04-25T00:24:19.509Z,92117.00
2023-04-25T00:25:19.484Z,92116.00
2023-04-25T00:26:19.500Z,92116.00
2023-04-25T00:27:19.481Z,92116.00
2023-04-25T00:28:19.490Z,92116.00
2023-04-25T00:29:19.495Z,92116.00
2023-04-25T00:30:19.490Z,92117.00
2023-04-25T00:31:19.538Z,92119.00
2023-04-25T00:32:19.492Z,92119.00
2023-04-25T00:33:19.506Z,92117.00
2023-04-25T00:34:19.525Z,92117.00
2023-04-25T00:35:19.513Z,92119.00
2023-04-25T00:36:19.524Z,92117.00
2023-04-25T00:37:19.515Z,92114.00
2023-04-25T00:38:19.529Z,92112.00
2023-04-25T00:39:19.534Z,92112.00
2023-04-25T00:40:19.549Z,92112.00
2023-04-25T00:41:19.562Z,92112.00
2023-04-25T00:42:19.560Z,92112.00
2023-04-25T00:43:19.564Z,92112.00
2023-04-25T00:44:19.577Z,92112.00
2023-04-25T00:45:19.573Z,92110.00
2023-04-25T00:46:19.582Z,92110.00
2023-04-25T00:47:19.590Z,92110.00
2023-04-25T00:48:19.597Z,92110.00
2023-04-25T00:49:19.610Z,92114.00
2023-04-25T00:50:19.600Z,92110.00
2023-04-25T00:51:19.608Z,92112.00
2023-04-25T00:52:19.609Z,92112.00
2023-04-25T00:53:19.618Z,92112.00
2023-04-25T00:54:19.624Z,92110.00
2023-04-25T00:55:19.630Z,92110.00
2023-04-25T00:56:19.642Z,92110.00
2023-04-25T00:57:19.646Z,92110.00
2023-04-25T00:58:19.654Z,92112.00
2023-04-25T00:59:19.663Z,92116.00
2023-04-25T01:00:19.662Z,92116.00
2023-04-25T01:01:19.737Z,92114.00
2023-04-25T01:02:19.789Z,92116.00
2023-04-25T01:03:19.841Z,92116.00
2023-04-25T01:04:19.855Z,92119.00
2023-04-25T01:05:19.682Z,92119.00
2023-04-25T01:06:19.696Z,92123.00
2023-04-25T01:07:19.692Z,92121.00
2023-04-25T01:08:19.698Z,92123.00
2023-04-25T01:09:19.709Z,92123.00
2023-04-25T01:10:19.712Z,92123.00
2023-04-25T01:11:19.723Z,92123.00
2023-04-25T01:12:19.729Z,92125.00
2023-04-25T01:13:19.729Z,92127.00
2023-04-25T01:14:19.753Z,92129.00
2023-04-25T01:15:19.738Z,92129.00
2023-04-25T01:16:19.805Z,92129.00
2023-04-25T01:17:19.762Z,92129.00
2023-04-25T01:18:19.771Z,92129.00
2023-04-25T01:19:19.791Z,92131.00
2023-04-25T01:20:19.788Z,92131.00
2023-04-25T01:21:19.788Z,92133.00
2023-04-25T01:22:19.796Z,92133.00
2023-04-25T01:23:19.810Z,92133.00
2023-04-25T01:24:19.824Z,92133.00
2023-04-25T01:25:19.835Z,92135.00
2023-04-25T01:26:19.838Z,92133.00
2023-04-25T01:27:19.845Z,92135.00
2023-04-25T01:28:19.857Z,92135.00
2023-04-25T01:29:19.861Z,92135.00
2023-04-25T01:30:19.876Z,92133.00
2023-04-25T01:31:19.953Z,92131.00
2023-04-25T01:32:19.971Z,92129.00
2023-04-25T01:33:19.877Z,92129.00
2023-04-25T01:34:19.879Z,92129.00
2023-04-25T01:35:19.881Z,92129.00
2023-04-25T01:36:19.915Z,92127.00
2023-04-25T01:37:19.904Z,92125.00
2023-04-25T01:38:19.908Z,92121.00
2023-04-25T01:39:19.894Z,92125.00
2023-04-25T01:40:19.884Z,92123.00
2023-04-25T01:41:19.881Z,92121.00
2023-04-25T01:42:19.879Z,92121.00
2023-04-25T01:43:19.860Z,92123.00
2023-04-25T01:44:19.861Z,92123.00
2023-04-25T01:45:19.829Z,92123.00
2023-04-25T01:46:19.814Z,92123.00
2023-04-25T01:47:19.740Z,92121.00
2023-04-25T01:48:19.685Z,92123.00
2023-04-25T01:49:19.638Z,92125.00
2023-04-25T01:50:19.607Z,92123.00
2023-04-25T01:51:19.552Z,92125.00
2023-04-25T01:52:19.514Z,92123.00
2023-04-25T01:53:19.474Z,92123.00
2023-04-25T01:54:19.405Z,92121.00
2023-04-25T01:55:19.360Z,92125.00
2023-04-25T01:56:19.309Z,92123.00
2023-04-25T01:57:19.272Z,92121.00
2023-04-25T01:58:19.227Z,92119.00
2023-04-25T01:59:19.193Z,92123.00
2023-04-25T02:00:19.146Z,92123.00
2023-04-25T02:01:19.245Z,92119.00
2023-04-25T02:02:19.144Z,92119.00
2023-04-25T02:03:19.125Z,92117.00
2023-04-25T02:04:19.243Z,92121.00
2023-04-25T02:05:18.953Z,92123.00
2023-04-25T02:06:18.922Z,92123.00
2023-04-25T02:07:18.885Z,92125.00
2023-04-25T02:08:18.867Z,92127.00
2023-04-25T02:09:18.846Z,92129.00
2023-04-25T02:10:18.827Z,92129.00
2023-04-25T02:11:18.799Z,92129.00
2023-04-25T02:12:18.776Z,92129.00
2023-04-25T02:13:18.753Z,92129.00
2023-04-25T02:14:18.732Z,92129.00
2023-04-25T02:15:18.690Z,92129.00
2023-04-25T02:16:18.708Z,92131.00
2023-04-25T02:17:18.664Z,92133.00
2023-04-25T02:18:18.656Z,92131.00
2023-04-25T02:19:19.245Z,92129.00
2023-04-25T02:20:18.562Z,92129.00
2023-04-25T02:21:18.514Z,92131.00
2023-04-25T02:22:18.483Z,92131.00
2023-04-25T02:23:18.459Z,92131.00
2023-04-25T02:24:18.435Z,92131.00
2023-04-25T02:25:18.404Z,92133.00
2023-04-25T02:26:18.391Z,92131.00
2023-04-25T02:27:18.368Z,92131.00
2023-04-25T02:28:18.353Z,92131.00
2023-04-25T02:29:18.340Z,92133.00
2023-04-25T02:30:18.300Z,92129.00
2023-04-25T02:31:18.322Z,92129.00
2023-04-25T02:32:18.256Z,92127.00
2023-04-25T02:33:18.225Z,92123.00
2023-04-25T02:34:18.205Z,92125.00
2023-04-25T02:35:18.169Z,92125.00
2023-04-25T02:36:18.148Z,92127.00
2023-04-25T02:37:18.117Z,92127.00
2023-04-25T02:38:18.099Z,92125.00
2023-04-25T02:39:18.059Z,92127.00
2023-04-25T02:40:18.036Z,92127.00
2023-04-25T02:41:18.013Z,92127.00
2023-04-25T02:42:17.986Z,92127.00
2023-04-25T02:43:17.961Z,92123.00
2023-04-25T02:44:17.929Z,92123.00
2023-04-25T02:45:17.900Z,92123.00
2023-04-25T02:46:25.513Z,92123.00
2023-04-25T02:47:18.831Z,92123.00
2023-04-25T02:48:17.844Z,92123.00
2023-04-25T02:49:17.756Z,92121.00
2023-04-25T02:50:17.709Z,92119.00
2023-04-25T02:51:17.670Z,92121.00
2023-04-25T02:52:17.601Z,92123.00
2023-04-25T02:53:17.572Z,92123.00
2023-04-25T02:54:17.535Z,92121.00
2023-04-25T02:55:17.497Z,92121.00
2023-04-25T02:56:17.445Z,92125.00
2023-04-25T02:57:17.403Z,92123.00
2023-04-25T02:58:17.364Z,92119.00
2023-04-25T02:59:17.321Z,92119.00
2023-04-25T03:00:17.276Z,92121.00
2023-04-25T03:01:17.275Z,92119.00
2023-04-25T03:02:17.197Z,92119.00
2023-04-25T03:03:17.257Z,92116.00
2023-04-25T03:04:17.140Z,92114.00
2023-04-25T03:05:17.048Z,92112.00
2023-04-25T03:06:17.065Z,92108.00
2023-04-25T03:07:16.973Z,92110.00
2023-04-25T03:08:16.917Z,92110.00
2023-04-25T03:09:16.886Z,92108.00
2023-04-25T03:10:16.837Z,92112.00
2023-04-25T03:11:16.782Z,92114.00
2023-04-25T03:12:16.746Z,92114.00
2023-04-25T03:13:16.725Z,92110.00
2023-04-25T03:14:16.700Z,92108.00
2023-04-25T03:15:16.690Z,92106.00
2023-04-25T03:16:16.742Z,92106.00
2023-04-25T03:17:16.653Z,92102.00
2023-04-25T03:18:16.651Z,92102.00
2023-04-25T03:19:16.628Z,92100.00
2023-04-25T03:20:16.602Z,92102.00
2023-04-25T03:21:16.972Z,92102.00
2023-04-25T03:22:16.581Z,92104.00
2023-04-25T03:23:16.549Z,92106.00
2023-04-25T03:24:16.524Z,92108.00
2023-04-25T03:25:16.503Z,92108.00
2023-04-25T03:26:16.499Z,92110.00
2023-04-25T03:27:16.477Z,92110.00
2023-04-25T03:28:16.453Z,92110.00
2023-04-25T03:29:16.435Z,92112.00
2023-04-25T03:30:16.419Z,92110.00
2023-04-25T03:31:16.400Z,92112.00
2023-04-25T03:32:16.422Z,92108.00
2023-04-25T03:33:16.370Z,92108.00
2023-04-25T03:34:16.346Z,92106.00
2023-04-25T03:35:16.340Z,92104.00
2023-04-25T03:36:16.309Z,92100.00
2023-04-25T03:37:16.296Z,92100.00
2023-04-25T03:38:16.291Z,92102.00
2023-04-25T03:39:16.273Z,92104.00
2023-04-25T03:40:16.242Z,92106.00
2023-04-25T03:41:16.230Z,92104.00
2023-04-25T03:42:16.207Z,92108.00
2023-04-25T03:43:16.195Z,92108.00
2023-04-25T03:44:16.176Z,92104.00
2023-04-25T03:45:16.160Z,92104.00
2023-04-25T03:46:16.189Z,92102.00
2023-04-25T03:47:16.116Z,92100.00
2023-04-25T03:48:16.099Z,92102.00
2023-04-25T03:49:17.832Z,92098.00
2023-04-25T03:50:16.054Z,92096.00
2023-04-25T03:51:15.989Z,92096.00
2023-04-25T03:52:15.954Z,92096.00
2023-04-25T03:53:15.896Z,92094.00
2023-04-25T03:54:15.860Z,92098.00
2023-04-25T03:55:15.824Z,92102.00
2023-04-25T03:56:15.778Z,92104.00
2023-04-25T03:57:15.733Z,92102.00
2023-04-25T03:58:15.675Z,92104.00
2023-04-25T03:59:15.643Z,92104.00
2023-04-25T04:00:15.579Z,92100.00
2023-04-25T04:01:15.540Z,92100.00
2023-04-25T04:02:15.554Z,92098.00
2023-04-25T04:03:15.531Z,92087.00
2023-04-25T04:04:15.720Z,92087.00
2023-04-25T04:05:15.422Z,92087.00
2023-04-25T04:06:15.301Z,92096.00
2023-04-25T04:07:15.256Z,92096.00
2023-04-25T04:08:15.212Z,92094.00
2023-04-25T04:09:15.175Z,92087.00
2023-04-25T04:10:15.129Z,92085.00
2023-04-25T04:11:15.097Z,92085.00
2023-04-25T04:12:15.025Z,92094.00
2023-04-25T04:13:14.976Z,92085.00
2023-04-25T04:14:14.927Z,92087.00
2023-04-25T04:15:14.885Z,92085.00
2023-04-25T04:16:14.871Z,92085.00
2023-04-25T04:17:14.789Z,92085.00
2023-04-25T04:18:14.735Z,92083.00
2023-04-25T04:19:14.685Z,92087.00
2023-04-25T04:20:14.638Z,92085.00
2023-04-25T04:21:14.596Z,92085.00
2023-04-25T04:22:14.579Z,92083.00
2023-04-25T04:23:14.499Z,92079.00
2023-04-25T04:24:14.456Z,92079.00
2023-04-25T04:25:14.421Z,92077.00
2023-04-25T04:26:14.368Z,92077.00
2023-04-25T04:27:14.348Z,92073.00
2023-04-25T04:28:14.319Z,92073.00
2023-04-25T04:29:14.226Z,92071.00
2023-04-25T04:30:14.190Z,92067.00
2023-04-25T04:31:14.193Z,92065.00
2023-04-25T04:32:14.105Z,92063.00
2023-04-25T04:33:14.100Z,92063.00
2023-04-25T04:34:14.017Z,92063.00
2023-04-25T04:35:13.970Z,92061.00
2023-04-25T04:36:13.918Z,92065.00
2023-04-25T04:37:13.864Z,92063.00
2023-04-25T04:38:13.818Z,92067.00
2023-04-25T04:39:13.780Z,92071.00
2023-04-25T04:40:13.741Z,92075.00
2023-04-25T04:41:13.707Z,92079.00
2023-04-25T04:42:13.670Z,92081.00
2023-04-25T04:43:13.623Z,92081.00
2023-04-25T04:44:13.574Z,92085.00
2023-04-25T04:45:13.521Z,92085.00
2023-04-25T04:46:13.545Z,92083.00
2023-04-25T04:47:13.450Z,92081.00
2023-04-25T04:48:13.455Z,92083.00
2023-04-25T04:49:13.370Z,92085.00
2023-04-25T04:50:13.319Z,92085.00
2023-04-25T04:51:13.269Z,92087.00
2023-04-25T04:52:13.227Z,92087.00
2023-04-25T04:53:13.189Z,92087.00
2023-04-25T04:54:13.140Z,92087.00
2023-04-25T04:55:13.098Z,92087.00
2023-04-25T04:56:13.063Z,92085.00
2023-04-25T04:57:13.023Z,92083.00
2023-04-25T04:58:12.981Z,92077.00
2023-04-25T04:59:12.930Z,92073.00
2023-04-25T05:00:12.875Z,92075.00
2023-04-25T05:01:12.882Z,92077.00
2023-04-25T05:02:12.807Z,92081.00
2023-04-25T05:03:12.855Z,92085.00
2023-04-25T05:04:12.896Z,92083.00
2023-04-25T05:05:12.665Z,92081.00
2023-04-25T05:06:12.627Z,92079.00
2023-04-25T05:07:12.588Z,92075.00
2023-04-25T05:08:12.544Z,92071.00
2023-04-25T05:09:12.505Z,92073.00
2023-04-25T05:10:12.457Z,92073.00
2023-04-25T05:11:12.407Z,92073.00
2023-04-25T05:12:12.402Z,92071.00
2023-04-25T05:13:12.366Z,92069.00
2023-04-25T05:14:12.347Z,92063.00
2023-04-25T05:15:12.350Z,92061.00
2023-04-25T05:16:12.329Z,92063.00
2023-04-25T05:17:12.310Z,92061.00
2023-04-25T05:18:12.305Z,92065.00
2023-04-25T05:19:12.266Z,92067.00
2023-04-25T05:20:12.248Z,92067.00
2023-04-25T05:21:12.216Z,92065.00
2023-04-25T05:22:12.205Z,92067.00
2023-04-25T05:23:12.174Z,92067.00
2023-04-25T05:24:12.167Z,92069.00
2023-04-25T05:25:12.212Z,92069.00
2023-04-25T05:26:12.136Z,92061.00
2023-04-25T05:27:12.153Z,92057.00
2023-04-25T05:28:12.146Z,92053.00
2023-04-25T05:29:12.151Z,92055.00
2023-04-25T05:30:12.164Z,92055.00
2023-04-25T05:31:12.182Z,92055.00
2023-04-25T05:32:12.279Z,92057.00
2023-04-25T05:33:12.256Z,92055.00
2023-04-25T05:34:12.243Z,92055.00
2023-04-25T05:35:12.280Z,92055.00
2023-04-25T05:36:12.236Z,92059.00
2023-04-25T05:37:12.231Z,92057.00
2023-04-25T05:38:12.216Z,92055.00
2023-04-25T05:39:12.189Z,92059.00
2023-04-25T05:40:12.151Z,92059.00
2023-04-25T05:41:12.093Z,92057.00
2023-04-25T05:42:12.061Z,92059.00
2023-04-25T05:43:12.069Z,92061.00
2023-04-25T05:44:12.077Z,92063.00
2023-04-25T05:45:12.070Z,92065.00
2023-04-25T05:46:12.108Z,92061.00
2023-04-25T05:47:12.063Z,92059.00
2023-04-25T05:48:12.072Z,92059.00
2023-04-25T05:49:12.038Z,92055.00
2023-04-25T05:50:12.038Z,92051.00
2023-04-25T05:51:12.042Z,92051.00
2023-04-25T05:52:12.039Z,92055.00
2023-04-25T05:53:12.045Z,92053.00
2023-04-25T05:54:12.035Z,92055.00
2023-04-25T05:55:12.046Z,92057.00
2023-04-25T05:56:12.037Z,92055.00
2023-04-25T05:57:12.013Z,92055.00
2023-04-25T05:58:12.013Z,92051.00
2023-04-25T05:59:11.989Z,92051.00
2023-04-25T06:00:12.019Z,92051.00
2023-04-25T06:01:12.736Z,92059.00
2023-04-25T06:02:11.959Z,92057.00
2023-04-25T06:03:12.040Z,92059.00
2023-04-25T06:04:12.037Z,92057.00
2023-04-25T06:05:12.111Z,92061.00
2023-04-25T06:06:11.798Z,92061.00
2023-04-25T06:07:11.768Z,92057.00
2023-04-25T06:08:11.744Z,92059.00
2023-04-25T06:09:13.326Z,92055.00
2023-04-25T06:10:11.816Z,92055.00
2023-04-25T06:11:11.771Z,92053.00
2023-04-25T06:12:11.720Z,92053.00
2023-04-25T06:13:11.726Z,92053.00
2023-04-25T06:14:11.673Z,92055.00
2023-04-25T06:15:24.532Z,92051.00
2023-04-25T06:16:12.577Z,92053.00
2023-04-25T06:17:11.464Z,92055.00
2023-04-25T06:18:11.394Z,92053.00
2023-04-25T06:19:11.313Z,92053.00
2023-04-25T06:20:11.245Z,92049.00
2023-04-25T06:21:11.177Z,92047.00
2023-04-25T06:22:11.089Z,92047.00
2023-04-25T06:23:11.032Z,92045.00
2023-04-25T06:24:10.959Z,92043.00
2023-04-25T06:25:10.936Z,92043.00
2023-04-25T06:26:10.850Z,92036.00
2023-04-25T06:27:10.764Z,92032.00
2023-04-25T06:28:10.726Z,92026.00
2023-04-25T06:29:10.625Z,92024.00
2023-04-25T06:30:10.598Z,92022.00
2023-04-25T06:31:10.521Z,92022.00
2023-04-25T06:32:10.506Z,92020.00
2023-04-25T06:33:10.406Z,92020.00
2023-04-25T06:34:10.303Z,92024.00
2023-04-25T06:35:10.253Z,92024.00
2023-04-25T06:36:10.222Z,92024.00
2023-04-25T06:37:10.199Z,92024.00
2023-04-25T06:38:10.206Z,92024.00
2023-04-25T06:39:10.190Z,92022.00
2023-04-25T06:40:10.192Z,92022.00
2023-04-25T06:41:10.154Z,92020.00
2023-04-25T06:42:10.146Z,92018.00
2023-04-25T06:43:10.140Z,92018.00
2023-04-25T06:44:10.121Z,92014.00
2023-04-25T06:45:10.103Z,92016.00
2023-04-25T06:46:10.110Z,92016.00
2023-04-25T06:47:10.113Z,92012.00
2023-04-25T06:48:10.159Z,92016.00
2023-04-25T06:49:10.090Z,92018.00
2023-04-25T06:50:10.077Z,92016.00
2023-04-25T06:51:10.074Z,92018.00
2023-04-25T06:52:10.075Z,92014.00
2023-04-25T06:53:10.082Z,92014.00
2023-04-25T06:54:10.093Z,92016.00
2023-04-25T06:55:10.081Z,92018.00
2023-04-25T06:56:10.102Z,92016.00
2023-04-25T06:57:10.087Z,92018.00
2023-04-25T06:58:10.102Z,92014.00
2023-04-25T06:59:10.101Z,92010.00
2023-04-25T07:00:10.104Z,92006.00
2023-04-25T07:01:10.167Z,92006.00
2023-04-25T07:02:10.174Z,92002.00
2023-04-25T07:03:10.221Z,92004.00
2023-04-25T07:04:10.477Z,92004.00
2023-04-25T07:05:10.146Z,92006.00
2023-04-25T07:06:10.168Z,92008.00
2023-04-25T07:07:10.180Z,92006.00
2023-04-25T07:08:10.199Z,92010.00
2023-04-25T07:09:10.208Z,92006.00
2023-04-25T07:10:10.204Z,92008.00
2023-04-25T07:11:10.208Z,92010.00
2023-04-25T07:12:10.214Z,92008.00
2023-04-25T07:13:10.225Z,92008.00
2023-04-25T07:14:10.226Z,92012.00
2023-04-25T07:15:10.236Z,92010.00
2023-04-25T07:16:10.276Z,92014.00
2023-04-25T07:17:10.249Z,92010.00
2023-04-25T07:18:10.259Z,92010.00
2023-04-25T07:19:10.181Z,92014.00
2023-04-25T07:20:10.157Z,92010.00
2023-04-25T07:21:10.113Z,92012.00
2023-04-25T07:22:10.096Z,92012.00
2023-04-25T07:23:10.107Z,92006.00
2023-04-25T07:24:10.120Z,92008.00
2023-04-25T07:25:10.140Z,92006.00
2023-04-25T07:26:10.165Z,92004.00
2023-04-25T07:27:10.181Z,91998.00
2023-04-25T07:28:10.197Z,92002.00
2023-04-25T07:29:10.213Z,92002.00
2023-04-25T07:30:10.232Z,91996.00
2023-04-25T07:31:10.266Z,91998.00
2023-04-25T07:32:10.341Z,92004.00
2023-04-25T07:33:10.381Z,92002.00
2023-04-25T07:34:10.371Z,92002.00
2023-04-25T07:35:10.366Z,92002.00
2023-04-25T07:36:10.380Z,92000.00
2023-04-25T07:37:10.377Z,92000.00
2023-04-25T07:38:10.371Z,91996.00
2023-04-25T07:39:10.380Z,92000.00
2023-04-25T07:40:10.371Z,91996.00
2023-04-25T07:41:10.354Z,91985.00
2023-04-25T07:42:10.336Z,91983.00
2023-04-25T07:43:10.310Z,91986.00
2023-04-25T07:44:10.265Z,91990.00
2023-04-25T07:45:10.222Z,91992.00
2023-04-25T07:46:10.217Z,91992.00
2023-04-25T07:47:10.173Z,91988.00
2023-04-25T07:48:10.134Z,91986.00
2023-04-25T07:49:10.119Z,91985.00
2023-04-25T07:50:10.101Z,91986.00
2023-04-25T07:51:10.074Z,91986.00
2023-04-25T07:52:10.852Z,91985.00
2023-04-25T07:53:10.040Z,91988.00
2023-04-25T07:54:10.030Z,91990.00
2023-04-25T07:55:10.015Z,91990.00
2023-04-25T07:56:10.018Z,91988.00
2023-04-25T07:57:09.987Z,91985.00
2023-04-25T07:58:09.965Z,91990.00
2023-04-25T07:59:09.944Z,91988.00
2023-04-25T08:00:09.935Z,91983.00
2023-04-25T08:01:09.905Z,91981.00
2023-04-25T08:02:09.930Z,91981.00
2023-04-25T08:03:11.083Z,91981.00
2023-04-25T08:04:09.924Z,91981.00
2023-04-25T08:05:09.955Z,91979.00
2023-04-25T08:06:10.013Z,91981.00
2023-04-25T08:07:10.838Z,91979.00
2023-04-25T08:08:09.759Z,91979.00
2023-04-25T08:09:09.760Z,91973.00
2023-04-25T08:10:09.712Z,91971.00
2023-04-25T08:11:09.698Z,91971.00
2023-04-25T08:12:09.677Z,91973.00
2023-04-25T08:13:09.653Z,91973.00
2023-04-25T08:14:09.656Z,91977.00
2023-04-25T08:15:09.599Z,91975.00
2023-04-25T08:16:09.653Z,91979.00
2023-04-25T08:17:09.510Z,91977.00
2023-04-25T08:18:09.512Z,91973.00
2023-04-25T08:19:09.452Z,91977.00
2023-04-25T08:20:09.434Z,91977.00
2023-04-25T08:21:09.416Z,91975.00
2023-04-25T08:22:09.404Z,91973.00
2023-04-25T08:23:09.371Z,91971.00
2023-04-25T08:24:09.374Z,91967.00
2023-04-25T08:25:09.351Z,91971.00
2023-04-25T08:26:09.332Z,91965.00
2023-04-25T08:27:09.330Z,91967.00
2023-04-25T08:28:09.323Z,91963.00
2023-04-25T08:29:09.330Z,91965.00
2023-04-25T08:30:09.298Z,91965.00
2023-04-25T08:31:09.292Z,91961.00
2023-04-25T08:32:09.209Z,91963.00
2023-04-25T08:33:09.267Z,91957.00
2023-04-25T08:34:09.146Z,91957.00
2023-04-25T08:35:09.121Z,91957.00
2023-04-25T08:36:09.086Z,91949.00
2023-04-25T08:37:09.031Z,91951.00
2023-04-25T08:38:08.997Z,91953.00
2023-04-25T08:39:08.947Z,91947.00
2023-04-25T08:40:08.945Z,91945.00
2023-04-25T08:41:09.381Z,91949.00
2023-04-25T08:42:08.868Z,91947.00
2023-04-25T08:43:08.895Z,91949.00
2023-04-25T08:44:08.889Z,91947.00
2023-04-25T08:45:08.888Z,91947.00
2023-04-25T08:46:08.893Z,91943.00
2023-04-25T08:47:10.065Z,91945.00
2023-04-25T08:48:08.940Z,91939.00
2023-04-25T08:49:08.831Z,91939.00
2023-04-25T08:50:08.813Z,91936.00
2023-04-25T08:52:08.749Z,91936.00
2023-04-25T08:53:08.812Z,91939.00
2023-04-25T08:54:12.921Z,91938.00
2023-04-25T08:55:09.575Z,91938.00
2023-04-25T08:56:08.515Z,91941.00
2023-04-25T08:57:08.436Z,91943.00
2023-04-25T08:58:08.368Z,91941.00
2023-04-25T08:59:08.295Z,91945.00
2023-04-25T09:00:08.241Z,91939.00
2023-04-25T09:01:08.190Z,91941.00
2023-04-25T09:02:08.098Z,91941.00
2023-04-25T09:03:08.236Z,91938.00
2023-04-25T09:04:08.133Z,91939.00
2023-04-25T09:05:07.900Z,91934.00
2023-04-25T09:06:07.825Z,91936.00
2023-04-25T09:07:07.773Z,91936.00
2023-04-25T09:08:07.697Z,91939.00
2023-04-25T09:09:07.863Z,91938.00
2023-04-25T09:10:07.600Z,91941.00
2023-04-25T09:11:07.558Z,91941.00
2023-04-25T09:12:07.515Z,91941.00
2023-04-25T09:13:07.508Z,91945.00
2023-04-25T09:14:07.491Z,91945.00
2023-04-25T09:15:07.504Z,91943.00
2023-04-25T09:16:07.472Z,91949.00
2023-04-25T09:17:07.459Z,91955.00
2023-04-25T09:18:07.474Z,91959.00
2023-04-25T09:19:07.411Z,91963.00
2023-04-25T09:20:07.409Z,91957.00
2023-04-25T09:21:12.957Z,91953.00
2023-04-25T09:22:08.332Z,91953.00
2023-04-25T09:23:07.266Z,91959.00
2023-04-25T09:24:07.188Z,91955.00
2023-04-25T09:25:07.885Z,91955.00
2023-04-25T09:26:07.044Z,91961.00
2023-04-25T09:27:06.969Z,91959.00
2023-04-25T09:28:06.903Z,91963.00
2023-04-25T09:29:06.857Z,91961.00
2023-04-25T09:30:06.768Z,91961.00
2023-04-25T09:31:06.709Z,91961.00
2023-04-25T09:32:06.723Z,91969.00
2023-04-25T09:33:06.773Z,91961.00
2023-04-25T09:34:06.710Z,91961.00
2023-04-25T09:35:06.719Z,91967.00
2023-04-25T09:36:06.719Z,91967.00
2023-04-25T09:37:06.688Z,91973.00
2023-04-25T09:38:06.686Z,91969.00
2023-04-25T09:39:06.683Z,91969.00
2023-04-25T09:40:06.678Z,91973.00
2023-04-25T09:41:06.667Z,91977.00
2023-04-25T09:42:06.656Z,91977.00
2023-04-25T09:43:06.656Z,91973.00
2023-04-25T09:44:06.634Z,91975.00
2023-04-25T09:45:06.666Z,91975.00
2023-04-25T09:46:06.641Z,91977.00
2023-04-25T09:47:06.598Z,91986.00
2023-04-25T09:48:06.681Z,91981.00
2023-04-25T09:49:06.592Z,91985.00
2023-04-25T09:50:06.565Z,91981.00
2023-04-25T09:51:06.572Z,91990.00
2023-04-25T09:52:06.545Z,91988.00
2023-04-25T09:53:06.540Z,91981.00
2023-04-25T09:54:06.523Z,91986.00
2023-04-25T09:55:06.496Z,91986.00
2023-04-25T09:56:06.481Z,91992.00
2023-04-25T09:57:06.463Z,91994.00
2023-04-25T09:58:06.444Z,91998.00
2023-04-25T09:59:06.427Z,91988.00
2023-04-25T10:00:06.392Z,91996.00
2023-04-25T10:01:06.409Z,91996.00
2023-04-25T10:02:06.358Z,91996.00
2023-04-25T10:03:06.404Z,91996.00
2023-04-25T10:04:06.396Z,91994.00
2023-04-25T10:05:06.404Z,92004.00
2023-04-25T10:06:06.275Z,92004.00
2023-04-25T10:07:06.238Z,92008.00
2023-04-25T10:08:06.217Z,92004.00
2023-04-25T10:09:06.212Z,92012.00
2023-04-25T10:10:06.188Z,92018.00
2023-04-25T10:11:06.258Z,92016.00
2023-04-25T10:12:06.147Z,92028.00
2023-04-25T10:13:06.150Z,92020.00
2023-04-25T10:14:06.122Z,92026.00
2023-04-25T10:15:06.084Z,92018.00
2023-04-25T10:16:06.095Z,92018.00
2023-04-25T10:17:06.034Z,92026.00
2023-04-25T10:18:06.022Z,92026.00
2023-04-25T10:19:05.940Z,92022.00
2023-04-25T10:20:05.874Z,92032.00
2023-04-25T10:21:05.833Z,92034.00
2023-04-25T10:22:05.749Z,92030.00
2023-04-25T10:23:05.694Z,92024.00
2023-04-25T10:24:05.621Z,92036.00
2023-04-25T10:25:05.586Z,92036.00
2023-04-25T10:26:05.518Z,92040.00
2023-04-25T10:27:05.537Z,92030.00
2023-04-25T10:28:05.436Z,92034.00
2023-04-25T10:29:05.383Z,92041.00
2023-04-25T10:30:05.482Z,92040.00
2023-04-25T10:31:05.363Z,92034.00
2023-04-25T10:32:05.260Z,92030.00
2023-04-25T10:33:05.206Z,92036.00
2023-04-25T10:34:05.165Z,92043.00
2023-04-25T10:35:05.098Z,92041.00
2023-04-25T10:36:05.015Z,92040.00
2023-04-25T10:37:04.956Z,92051.00
2023-04-25T10:38:04.885Z,92053.00
2023-04-25T10:39:04.829Z,92053.00
2023-04-25T10:40:04.769Z,92051.00
2023-04-25T10:41:04.696Z,92047.00
2023-04-25T10:42:04.624Z,92055.00
2023-04-25T10:43:04.583Z,92055.00
2023-04-25T10:44:04.507Z,92057.00
2023-04-25T10:45:04.453Z,92059.00
2023-04-25T10:46:04.455Z,92067.00
2023-04-25T10:47:04.478Z,92069.00
2023-04-25T10:48:04.294Z,92071.00
2023-04-25T10:49:04.191Z,92071.00
2023-04-25T10:50:04.138Z,92067.00
2023-04-25T10:51:04.079Z,92069.00
2023-04-25T10:52:04.032Z,92069.00
2023-04-25T10:53:04.008Z,92063.00
2023-04-25T10:54:03.992Z,92067.00
2023-04-25T10:55:03.963Z,92049.00
2023-04-25T10:56:03.942Z,92055.00
2023-04-25T10:57:03.914Z,92055.00
2023-04-25T10:58:03.894Z,92051.00
2023-04-25T10:59:03.878Z,92041.00
2023-04-25T11:00:03.842Z,92045.00
2023-04-25T11:01:03.875Z,92040.00
2023-04-25T11:02:03.941Z,92041.00
2023-04-25T11:03:03.881Z,92036.00
2023-04-25T11:04:03.830Z,92034.00
2023-04-25T11:05:03.751Z,92032.00
2023-04-25T11:06:03.699Z,92030.00
2023-04-25T11:07:07.135Z,92028.00
2023-04-25T11:08:07.853Z,92028.00
2023-04-25T11:09:03.550Z,92028.00
2023-04-25T11:10:03.498Z,92028.00
2023-04-25T11:11:03.433Z,92024.00
2023-04-25T11:12:03.427Z,92022.00
2023-04-25T11:13:03.294Z,92020.00
2023-04-25T11:14:03.217Z,92032.00
2023-04-25T11:15:03.172Z,92026.00
2023-04-25T11:16:12.299Z,92018.00
2023-04-25T11:17:03.105Z,92016.00
2023-04-25T11:18:03.022Z,92024.00
2023-04-25T11:19:02.911Z,92022.00
2023-04-25T11:20:02.858Z,92018.00
2023-04-25T11:21:02.797Z,92018.00
2023-04-25T11:22:02.752Z,92022.00
2023-04-25T11:24:02.621Z,92026.00
2023-04-25T11:25:02.556Z,92024.00
2023-04-25T11:26:02.483Z,92018.00
2023-04-25T11:27:02.426Z,92024.00
2023-04-25T11:28:02.519Z,92034.00
2023-04-25T11:29:02.296Z,92032.00
2023-04-25T11:30:02.232Z,92034.00
2023-04-25T11:31:02.161Z,92022.00
2023-04-25T11:32:02.368Z,92022.00
2023-04-25T11:33:02.119Z,92018.00
2023-04-25T11:34:02.106Z,92026.00
2023-04-25T11:35:02.108Z,92038.00
2023-04-25T11:36:02.084Z,92047.00
2023-04-25T11:37:02.072Z,92036.00
2023-04-25T11:38:02.061Z,92043.00
2023-04-25T11:39:02.073Z,92034.00
2023-04-25T11:40:02.068Z,92053.00
2023-04-25T11:41:02.491Z,92051.00
2023-04-25T11:42:02.239Z,92053.00
2023-04-25T11:43:02.979Z,92065.00
2023-04-25T11:44:01.967Z,92079.00
2023-04-25T11:45:01.866Z,92081.00
2023-04-25T11:46:01.869Z,92075.00